Time;durP1;ratioP1;P1;durP2;ratioP2;P2;SDS_P1;SDS_P2;PMS_P1;PMS_P2;Temp;Humidity;BMP_temperature;BMP_pressure;BME280_temperature;BME280_humidity;BME280_pressure;Samples;Min_cycle;Max_cycle;Signal;HPM_P1;HPM_P2
2021/11/08 00:02:17;;;;;;;32.33;19.98;;;10.10;88.80;;;;;;5057171;28;20029;-36
2021/11/08 00:04:43;;;;;;;39.03;20.60;;;10.10;89.00;;;;;;5057369;28;20037;-35
2021/11/08 00:07:09;;;;;;;34.67;20.65;;;10.10;89.20;;;;;;5056962;28;20095;-35
2021/11/08 00:09:35;;;;;;;30.38;18.80;;;10.10;89.30;;;;;;5057108;28;20068;-37
2021/11/08 00:12:01;;;;;;;32.85;21.08;;;10.10;89.30;;;;;;5057177;28;20029;-36
2021/11/08 00:14:27;;;;;;;33.28;20.13;;;10.20;89.50;;;;;;5056197;28;20464;-37
2021/11/08 00:17:03;;;;;;;34.10;19.88;;;10.20;89.50;;;;;;5056764;28;20028;-35
2021/11/08 00:22:13;;;;;;;33.75;20.27;;;10.20;89.60;;;;;;5056933;28;20039;-36
2021/11/08 00:24:40;;;;;;;37.15;21.08;;;10.20;89.60;;;;;;5057031;28;20029;-35
2021/11/08 00:27:06;;;;;;;40.13;20.95;;;10.20;89.70;;;;;;5056585;28;20037;-35
2021/11/08 00:29:34;;;;;;;32.03;19.23;;;10.20;89.80;;;;;;5056943;28;20029;-38
2021/11/08 00:32:00;;;;;;;31.00;19.13;;;10.20;89.80;;;;;;5056590;28;20491;-36
2021/11/08 00:34:26;;;;;;;32.28;19.33;;;10.20;89.90;;;;;;5057025;28;20317;-38
2021/11/08 00:36:52;;;;;;;34.38;19.85;;;10.20;89.90;;;;;;5056118;28;20032;-35
2021/11/08 00:39:21;;;;;;;31.15;19.33;;;10.20;90.00;;;;;;5056747;28;20356;-38
2021/11/08 00:41:47;;;;;;;31.33;19.35;;;10.20;90.00;;;;;;5056405;28;20060;-35
2021/11/08 00:44:12;;;;;;;32.25;20.55;;;10.20;90.10;;;;;;5056722;28;20033;-37
2021/11/08 00:46:38;;;;;;;31.95;20.05;;;10.20;90.10;;;;;;5056268;28;20029;-36
2021/11/08 00:49:04;;;;;;;31.60;18.85;;;10.20;90.10;;;;;;5056460;28;20120;-36
2021/11/08 00:51:35;;;;;;;30.48;18.67;;;10.20;90.10;;;;;;5056228;28;20063;-38
2021/11/08 00:54:00;;;;;;;32.83;18.55;;;10.20;90.10;;;;;;5055979;28;20036;-39
2021/11/08 00:56:26;;;;;;;35.20;19.45;;;10.20;90.10;;;;;;5055834;28;20021;-36
2021/11/08 00:58:52;;;;;;;33.25;19.27;;;10.20;90.10;;;;;;5056439;28;20047;-37
2021/11/08 01:01:22;;;;;;;28.77;18.65;;;10.30;90.10;;;;;;5055858;28;20032;-38
2021/11/08 01:03:49;;;;;;;28.83;17.88;;;10.30;90.10;;;;;;5056006;28;20041;-36
2021/11/08 01:06:17;;;;;;;32.97;19.10;;;10.30;90.10;;;;;;5056083;28;20325;-38
2021/11/08 01:08:43;;;;;;;32.17;19.50;;;10.30;90.10;;;;;;5056193;28;20067;-36
2021/11/08 01:11:09;;;;;;;33.80;19.17;;;10.30;90.10;;;;;;5055917;28;20421;-36
2021/11/08 01:13:36;;;;;;;35.60;20.08;;;10.30;90.10;;;;;;5055877;28;20035;-37
2021/11/08 01:16:03;;;;;;;35.50;19.20;;;10.30;90.10;;;;;;5055613;28;20151;-38
2021/11/08 01:18:29;;;;;;;38.85;20.75;;;10.30;90.20;;;;;;5056141;28;20325;-36
2021/11/08 01:20:55;;;;;;;31.98;19.60;;;10.20;90.20;;;;;;5055739;28;20029;-36
2021/11/08 01:23:25;;;;;;;32.38;20.80;;;10.20;90.20;;;;;;5055644;28;20100;-35
2021/11/08 01:25:58;;;;;;;33.78;20.65;;;10.20;90.30;;;;;;5055762;28;20029;-36
2021/11/08 01:28:32;;;;;;;34.00;19.58;;;10.20;90.30;;;;;;5055839;28;20414;-36
2021/11/08 01:30:59;;;;;;;35.08;20.35;;;10.20;90.30;;;;;;5055841;28;20025;-36
2021/11/08 01:33:25;;;;;;;34.80;20.92;;;10.20;90.40;;;;;;5055838;28;20035;-36
2021/11/08 01:36:10;;;;;;;38.20;21.30;;;10.20;90.40;;;;;;5055748;28;20021;-38
2021/11/08 01:41:09;;;;;;;35.72;20.30;;;10.20;90.50;;;;;;5055540;28;20048;-36
2021/11/08 01:43:35;;;;;;;33.10;19.98;;;10.30;90.50;;;;;;5055583;28;20047;-37
2021/11/08 01:46:04;;;;;;;33.17;20.48;;;10.30;90.50;;;;;;5055445;28;20032;-35
2021/11/08 01:48:30;;;;;;;35.88;19.85;;;10.30;90.50;;;;;;5055347;28;20049;-38
2021/11/08 01:50:55;;;;;;;38.08;21.20;;;10.30;90.50;;;;;;5055783;28;20034;-37
2021/11/08 01:53:23;;;;;;;32.22;19.80;;;10.30;90.50;;;;;;5055275;28;20064;-37
2021/11/08 01:55:50;;;;;;;35.85;21.48;;;10.30;90.40;;;;;;5055193;28;20403;-35
2021/11/08 01:58:20;;;;;;;35.17;20.55;;;10.30;90.30;;;;;;5055441;28;20037;-37
2021/11/08 02:00:47;;;;;;;35.03;21.05;;;10.30;90.20;;;;;;5055827;28;20032;-36
2021/11/08 02:03:16;;;;;;;34.50;19.92;;;10.20;90.10;;;;;;5055265;28;20115;-35
2021/11/08 02:05:41;;;;;;;36.20;19.95;;;10.30;90.10;;;;;;5055658;28;20078;-35
2021/11/08 02:08:07;;;;;;;38.67;21.33;;;10.20;90.00;;;;;;5055086;28;20423;-38
2021/11/08 02:10:33;;;;;;;32.20;20.15;;;10.20;90.00;;;;;;5055550;28;20078;-35
2021/11/08 02:12:58;;;;;;;37.35;20.55;;;10.20;89.90;;;;;;5055146;28;20326;-34
2021/11/08 02:15:24;;;;;;;36.00;21.05;;;10.20;89.90;;;;;;5055736;28;20032;-36
2021/11/08 02:17:50;;;;;;;35.75;21.38;;;10.10;89.80;;;;;;5055169;28;20025;-36
2021/11/08 02:20:25;;;;;;;39.70;21.42;;;10.10;89.90;;;;;;5055211;28;20326;-38
2021/11/08 02:22:53;;;;;;;34.78;19.85;;;10.10;89.90;;;;;;5057728;28;20025;-35
2021/11/08 02:25:21;;;;;;;36.85;20.65;;;10.00;90.00;;;;;;5059406;28;20033;-35
2021/11/08 02:27:47;;;;;;;38.58;21.08;;;10.00;90.00;;;;;;5058670;28;20021;-36
2021/11/08 02:30:15;;;;;;;40.25;22.20;;;9.90;90.10;;;;;;5059520;28;20028;-38
2021/11/08 02:32:42;;;;;;;40.50;22.90;;;9.90;90.10;;;;;;5058888;28;20080;-37
2021/11/08 02:35:10;;;;;;;38.58;22.50;;;9.90;90.20;;;;;;5059355;28;20324;-35
2021/11/08 02:37:36;;;;;;;41.55;23.15;;;9.80;90.30;;;;;;5058450;28;20056;-38
2021/11/08 02:40:03;;;;;;;47.10;22.85;;;9.80;90.30;;;;;;5057746;28;20378;-35
2021/11/08 02:42:30;;;;;;;35.28;21.60;;;9.80;90.30;;;;;;5058737;28;20041;-37
2021/11/08 02:44:56;;;;;;;36.33;20.05;;;9.80;90.40;;;;;;5058738;28;20033;-37
2021/11/08 02:47:22;;;;;;;31.83;18.65;;;9.70;90.60;;;;;;5058312;28;20033;-35
2021/11/08 02:49:50;;;;;;;53.17;25.42;;;9.70;90.40;;;;;;5058730;28;20033;-36
2021/11/08 02:52:19;;;;;;;47.38;25.15;;;9.70;90.30;;;;;;5058574;28;20029;-35
2021/11/08 02:54:49;;;;;;;43.35;22.48;;;9.70;90.40;;;;;;5058311;28;20045;-36
2021/11/08 02:57:14;;;;;;;36.55;20.83;;;9.60;90.30;;;;;;5058359;28;20029;-35
2021/11/08 02:59:41;;;;;;;41.72;23.25;;;9.60;90.30;;;;;;5058654;28;20357;-36
2021/11/08 03:02:08;;;;;;;44.33;24.42;;;9.60;90.50;;;;;;5058027;28;20025;-36
2021/11/08 03:04:41;;;;;;;38.50;21.45;;;9.60;90.60;;;;;;5058492;28;20036;-37
2021/11/08 03:07:08;;;;;;;37.38;22.40;;;9.50;90.70;;;;;;5058005;28;20021;-38
2021/11/08 03:09:48;;;;;;;43.92;23.20;;;9.50;90.70;;;;;;5058325;28;20037;-37
2021/11/08 03:12:16;;;;;;;44.80;25.50;;;9.50;90.80;;;;;;5058011;28;20039;-37
2021/11/08 03:14:53;;;;;;;40.95;24.17;;;9.50;90.90;;;;;;5058371;28;20033;-35
2021/11/08 03:17:22;;;;;;;44.40;24.92;;;9.50;90.90;;;;;;5057948;28;20029;-37
2021/11/08 03:19:48;;;;;;;45.50;25.38;;;9.50;90.90;;;;;;5058376;28;20043;-36
2021/11/08 03:22:17;;;;;;;39.65;22.80;;;9.50;90.90;;;;;;5056472;28;20125;-36
2021/11/08 03:27:15;;;;;;;41.38;23.38;;;9.50;91.10;;;;;;5058062;28;20068;-37
2021/11/08 03:29:41;;;;;;;45.50;25.42;;;9.50;91.20;;;;;;5058029;28;20041;-36
2021/11/08 03:32:07;;;;;;;42.13;25.02;;;9.60;91.20;;;;;;5057556;28;20024;-40
2021/11/08 03:34:36;;;;;;;44.45;25.30;;;9.60;91.20;;;;;;5056729;28;20029;-36
2021/11/08 03:37:02;;;;;;;50.05;25.42;;;9.60;91.20;;;;;;5057516;28;20039;-36
2021/11/08 03:39:28;;;;;;;45.47;25.35;;;9.60;91.10;;;;;;5057883;28;20032;-36
2021/11/08 03:41:54;;;;;;;39.97;23.13;;;9.60;91.10;;;;;;5057274;28;20310;-37
2021/11/08 03:44:20;;;;;;;43.08;25.80;;;9.60;91.10;;;;;;5057854;28;20041;-36
2021/11/08 03:46:46;;;;;;;42.45;24.48;;;9.60;91.10;;;;;;5057191;28;20040;-37
2021/11/08 03:49:12;;;;;;;40.20;23.77;;;9.70;91.10;;;;;;5057767;28;20037;-38
2021/11/08 03:51:38;;;;;;;37.22;23.48;;;9.70;91.10;;;;;;5057168;28;20040;-36
2021/11/08 03:54:04;;;;;;;39.78;24.67;;;9.70;91.10;;;;;;5057450;28;20325;-36
2021/11/08 03:56:30;;;;;;;42.83;24.33;;;9.70;91.00;;;;;;5056880;28;20036;-36
2021/11/08 03:58:56;;;;;;;45.22;25.20;;;9.70;91.00;;;;;;5057545;28;20032;-38
2021/11/08 04:01:22;;;;;;;42.28;25.98;;;9.70;90.90;;;;;;5057318;28;20039;-36
2021/11/08 04:03:48;;;;;;;45.47;25.67;;;9.80;91.00;;;;;;5057417;28;20037;-37
2021/11/08 04:06:15;;;;;;;40.00;24.02;;;9.80;90.90;;;;;;5056943;28;20057;-38
2021/11/08 04:08:40;;;;;;;42.45;25.05;;;9.80;90.80;;;;;;5056848;28;20041;-35
2021/11/08 04:11:07;;;;;;;43.30;26.75;;;9.80;90.80;;;;;;5056808;28;20098;-35
2021/11/08 04:13:37;;;;;;;47.03;26.67;;;9.80;90.90;;;;;;5057183;28;20076;-38
2021/11/08 04:16:04;;;;;;;50.78;27.45;;;9.80;90.80;;;;;;5056729;28;20127;-37
2021/11/08 04:18:31;;;;;;;42.95;25.45;;;9.80;90.70;;;;;;5056997;28;20064;-35
2021/11/08 04:20:59;;;;;;;51.92;28.73;;;9.80;90.70;;;;;;5056898;28;20025;-35
2021/11/08 04:23:26;;;;;;;46.00;28.55;;;9.80;90.70;;;;;;5056714;28;20436;-36
2021/11/08 04:25:57;;;;;;;54.17;27.73;;;9.80;90.80;;;;;;5056951;28;20320;-35
2021/11/08 04:28:24;;;;;;;54.10;28.88;;;9.80;90.80;;;;;;5056402;28;20025;-38
2021/11/08 04:30:50;;;;;;;51.30;29.33;;;9.80;90.80;;;;;;5056950;28;20056;-36
2021/11/08 04:51:04;;;;;;;47.03;27.15;;;9.80;90.50;;;;;;5056426;28;20028;-38
2021/11/08 04:53:45;;;;;;;51.40;28.58;;;9.80;90.60;;;;;;5056390;28;20029;-36
2021/11/08 05:21:10;;;;;;;49.72;28.90;;;9.80;90.50;;;;;;5056329;28;20171;-36
2021/11/08 05:28:39;;;;;;;56.85;31.80;;;9.70;90.10;;;;;;5055528;28;20094;-37
2021/11/08 05:31:05;;;;;;;;;;;9.70;90.10;;;;;;5056186;28;20323;-37
2021/11/08 05:33:31;;;;;;;49.92;28.30;;;9.70;90.00;;;;;;5055512;28;19909;-36
2021/11/08 05:35:56;;;;;;;81.90;46.85;;;9.60;90.10;;;;;;5055699;28;20040;-37
2021/11/08 05:38:22;;;;;;;47.35;29.42;;;9.60;90.00;;;;;;5055447;28;20021;-39
2021/11/08 05:40:48;;;;;;;43.17;25.98;;;9.60;90.00;;;;;;5055682;28;20380;-37
2021/11/08 05:43:13;;;;;;;44.63;26.80;;;9.60;90.00;;;;;;5055279;28;20413;-39
2021/11/08 05:45:41;;;;;;;44.38;25.90;;;9.60;89.90;;;;;;5055243;28;20103;-36
2021/11/08 05:48:08;;;;;;;45.38;26.60;;;9.60;90.00;;;;;;5055097;28;20075;-37
2021/11/08 05:50:36;;;;;;;43.42;27.02;;;9.60;89.90;;;;;;5055143;28;20025;-36
2021/11/08 05:53:05;;;;;;;45.83;26.90;;;9.70;89.90;;;;;;5055068;28;20031;-38
2021/11/08 05:55:38;;;;;;;46.13;27.30;;;9.70;89.80;;;;;;5055142;28;20053;-35
2021/11/08 06:50:06;;;;;;;33.25;22.08;;;10.00;86.40;;;;;;5058244;28;20106;-35
2021/11/08 06:52:33;;;;;;;34.13;21.50;;;10.00;86.20;;;;;;5057793;28;20075;-36
2021/11/08 06:55:05;;;;;;;35.20;20.83;;;10.00;86.00;;;;;;5057831;28;20057;-36
2021/11/08 06:57:32;;;;;;;29.50;19.33;;;10.00;85.50;;;;;;5057649;28;20029;-37
2021/11/08 06:59:58;;;;;;;32.30;20.85;;;10.00;84.70;;;;;;5058209;28;20060;-36
2021/11/08 07:02:25;;;;;;;36.03;20.35;;;10.00;84.60;;;;;;5057528;28;20441;-38
2021/11/08 07:04:54;;;;;;;39.20;22.77;;;10.00;84.50;;;;;;5057929;28;20376;-37
2021/11/08 07:07:20;;;;;;;36.63;21.83;;;10.00;84.50;;;;;;5057517;28;20032;-37
2021/11/08 07:09:46;;;;;;;32.35;18.77;;;10.00;84.40;;;;;;5057696;28;20040;-39
2021/11/08 07:12:12;;;;;;;33.75;20.92;;;10.00;84.20;;;;;;5057818;28;20405;-40
2021/11/08 07:14:39;;;;;;;30.85;19.83;;;10.10;84.30;;;;;;5058041;28;20386;-36
2021/11/08 07:17:06;;;;;;;31.52;17.73;;;10.10;84.40;;;;;;5057191;28;20099;-38
2021/11/08 07:19:34;;;;;;;29.17;19.15;;;10.10;84.00;;;;;;5057768;28;20044;-35
2021/11/08 07:22:00;;;;;;;29.10;17.75;;;10.10;84.00;;;;;;5057376;28;20025;-35
2021/11/08 07:24:26;;;;;;;29.75;18.83;;;10.20;83.80;;;;;;5057533;28;20037;-39
2021/11/08 07:26:52;;;;;;;27.17;17.00;;;10.20;83.30;;;;;;5057093;28;20025;-35
2021/11/08 07:29:21;;;;;;;30.67;18.35;;;10.20;82.70;;;;;;5057662;28;20143;-38
2021/11/08 07:31:46;;;;;;;24.52;16.52;;;10.30;82.40;;;;;;5057350;28;20321;-36
2021/11/08 07:34:13;;;;;;;28.65;16.52;;;10.30;82.20;;;;;;5057303;28;20036;-37
2021/11/08 07:36:39;;;;;;;24.17;14.88;;;10.40;81.60;;;;;;5057167;28;20028;-38
2021/11/08 07:39:06;;;;;;;27.50;15.85;;;10.40;81.00;;;;;;5057189;28;20033;-38
2021/11/08 07:41:32;;;;;;;24.50;16.25;;;10.40;80.70;;;;;;5056915;28;20025;-35
2021/11/08 07:43:58;;;;;;;26.42;16.17;;;10.50;80.60;;;;;;5057356;28;20029;-36
2021/11/08 07:46:24;;;;;;;27.88;16.05;;;10.50;80.70;;;;;;5056958;28;20035;-35
2021/11/08 07:48:50;;;;;;;23.60;14.93;;;10.60;80.50;;;;;;5057004;28;20111;-35
2021/11/08 07:51:17;;;;;;;25.42;15.50;;;10.60;79.90;;;;;;5057030;28;20029;-37
2021/11/08 07:53:44;;;;;;;26.27;14.85;;;10.70;79.70;;;;;;5056896;28;20028;-36
2021/11/08 07:56:10;;;;;;;29.35;17.92;;;10.70;79.30;;;;;;5049086;28;20052;-37
2021/11/08 07:58:37;;;;;;;34.08;18.45;;;10.80;78.70;;;;;;5052601;28;20041;-38
2021/11/08 08:01:04;;;;;;;29.27;17.27;;;10.80;78.90;;;;;;5072886;28;20034;-37
2021/11/08 08:03:29;;;;;;;30.83;16.58;;;10.90;78.40;;;;;;5076847;28;20040;-39
2021/11/08 08:05:57;;;;;;;29.92;18.48;;;11.00;78.20;;;;;;5076803;28;20337;-39
2021/11/08 08:08:23;;;;;;;23.65;13.18;;;11.10;78.30;;;;;;5076189;28;20903;-38
2021/11/08 08:10:53;;;;;;;23.23;14.50;;;11.10;77.70;;;;;;5076786;28;20036;-35
2021/11/08 08:13:23;;;;;;;19.70;13.18;;;11.10;77.10;;;;;;5076187;28;20020;-36
2021/11/08 08:15:49;;;;;;;26.75;15.38;;;11.20;76.70;;;;;;5076686;28;20029;-36
2021/11/08 08:18:15;;;;;;;23.27;13.55;;;11.20;76.40;;;;;;5074815;28;20032;-36
2021/11/08 08:20:41;;;;;;;27.80;14.98;;;11.30;76.20;;;;;;5075835;28;20104;-37
2021/11/08 08:23:08;;;;;;;22.98;13.60;;;11.30;76.40;;;;;;5075967;28;20028;-39
2021/11/08 08:25:34;;;;;;;27.77;14.05;;;11.40;75.80;;;;;;5076126;28;20028;-38
2021/11/08 08:28:00;;;;;;;23.70;12.48;;;11.40;75.40;;;;;;5076121;28;20078;-40
2021/11/08 08:30:27;;;;;;;19.35;10.98;;;11.50;75.20;;;;;;5076874;28;20021;-36
2021/11/08 08:32:54;;;;;;;19.45;11.90;;;11.50;73.70;;;;;;5076485;28;20036;-36
2021/11/08 08:35:20;;;;;;;17.60;11.65;;;11.60;74.20;;;;;;5076072;28;20036;-36
2021/11/08 08:37:46;;;;;;;19.63;12.02;;;11.70;73.60;;;;;;5075136;28;20107;-37
2021/11/08 08:40:13;;;;;;;28.35;13.18;;;11.70;73.20;;;;;;5076244;28;20500;-35
2021/11/08 08:42:40;;;;;;;20.20;11.70;;;11.80;73.30;;;;;;5075869;28;20063;-38
2021/11/08 08:45:07;;;;;;;18.45;11.43;;;11.80;72.50;;;;;;5076535;28;20052;-39
2021/11/08 08:47:33;;;;;;;21.35;12.50;;;11.90;71.80;;;;;;5076127;28;20075;-39
2021/11/08 08:49:58;;;;;;;18.67;12.60;;;11.90;71.40;;;;;;5076270;28;20056;-38
2021/11/08 08:52:24;;;;;;;16.77;11.40;;;11.90;71.60;;;;;;5075981;28;20024;-39
2021/11/08 08:54:52;;;;;;;20.50;11.45;;;12.00;71.40;;;;;;5075224;28;20049;-39
2021/11/08 08:57:18;;;;;;;20.67;11.07;;;12.00;71.30;;;;;;5075522;28;20390;-36
2021/11/08 08:59:43;;;;;;;19.02;11.45;;;12.10;70.60;;;;;;5076039;28;20394;-36
2021/11/08 09:02:11;;;;;;;20.65;11.85;;;12.20;70.50;;;;;;5074542;28;20081;-36
2021/11/08 09:04:37;;;;;;;21.65;11.50;;;12.30;70.20;;;;;;5075905;28;20085;-36
2021/11/08 09:07:04;;;;;;;20.23;12.80;;;12.30;70.10;;;;;;5075516;28;20036;-38
2021/11/08 09:09:30;;;;;;;24.45;11.27;;;12.30;69.00;;;;;;5075761;28;20040;-37
2021/11/08 09:11:56;;;;;;;17.52;12.15;;;12.40;69.00;;;;;;5075345;28;20278;-35
2021/11/08 09:14:22;;;;;;;19.67;12.18;;;12.50;69.20;;;;;;5075823;28;20037;-35
2021/11/08 09:16:47;;;;;;;24.95;12.70;;;12.50;68.80;;;;;;5073907;28;20044;-35
2021/11/08 09:19:13;;;;;;;21.50;12.57;;;12.50;68.20;;;;;;5075531;28;20111;-37
2021/11/08 09:21:40;;;;;;;18.30;12.65;;;12.50;68.20;;;;;;5075144;28;20321;-39
2021/11/08 09:24:06;;;;;;;18.40;10.75;;;12.60;68.40;;;;;;5075832;28;20036;-35
2021/11/08 09:26:34;;;;;;;18.77;11.48;;;12.60;68.20;;;;;;5075282;28;20024;-37
2021/11/08 09:29:00;;;;;;;16.02;10.40;;;12.60;68.00;;;;;;5075578;28;20040;-35
2021/11/08 09:31:26;;;;;;;24.38;12.75;;;12.60;67.80;;;;;;5075343;28;20095;-37
2021/11/08 09:34:02;;;;;;;18.17;12.18;;;12.60;67.60;;;;;;5075695;28;20037;-35
2021/11/08 09:36:29;;;;;;;17.40;11.68;;;12.60;67.60;;;;;;5075395;28;20135;-38
2021/11/08 09:38:58;;;;;;;23.35;12.55;;;12.60;67.60;;;;;;5075620;28;20040;-39
2021/11/08 09:41:36;;;;;;;22.70;11.90;;;12.60;67.90;;;;;;5075124;28;20166;-36
2021/11/08 09:44:05;;;;;;;20.27;12.07;;;12.60;67.60;;;;;;5075758;28;20036;-38
2021/11/08 09:46:31;;;;;;;21.63;13.30;;;12.70;67.70;;;;;;5075041;28;20400;-36
2021/11/08 09:49:01;;;;;;;20.02;11.93;;;12.70;67.20;;;;;;5075123;28;20366;-35
2021/11/08 09:51:29;;;;;;;19.80;12.75;;;12.60;66.80;;;;;;5074917;28;20027;-35
2021/11/08 09:53:56;;;;;;;20.67;12.15;;;12.60;67.00;;;;;;5075265;28;20028;-35
2021/11/08 09:56:22;;;;;;;23.10;13.15;;;12.70;67.00;;;;;;5074538;28;20056;-35
2021/11/08 09:58:48;;;;;;;17.95;12.02;;;12.60;67.10;;;;;;5075082;28;20040;-36
2021/11/08 10:01:15;;;;;;;22.02;13.20;;;12.70;67.00;;;;;;5075051;28;20320;-38
2021/11/08 10:03:45;;;;;;;19.20;13.02;;;12.70;66.40;;;;;;5075240;28;20397;-36
2021/11/08 10:06:11;;;;;;;23.50;11.85;;;12.70;66.60;;;;;;5074825;28;20028;-35
2021/11/08 10:08:39;;;;;;;24.65;12.50;;;12.70;66.70;;;;;;5075140;28;20044;-36
2021/11/08 10:11:14;;;;;;;22.05;12.38;;;12.70;66.60;;;;;;5074761;28;20016;-39
2021/11/08 10:13:41;;;;;;;16.15;10.88;;;12.70;66.30;;;;;;5075202;28;20033;-39
2021/11/08 10:16:14;;;;;;;18.73;11.57;;;12.70;66.00;;;;;;5074796;28;20120;-36
2021/11/08 10:18:43;;;;;;;29.70;11.75;;;12.70;65.80;;;;;;5075015;28;20115;-36
2021/11/08 10:21:12;;;;;;;18.63;12.00;;;12.70;65.80;;;;;;5074612;28;20474;-36
2021/11/08 10:23:40;;;;;;;37.75;12.35;;;12.70;65.90;;;;;;5075030;28;20033;-36
2021/11/08 10:26:15;;;;;;;18.63;10.13;;;12.70;66.40;;;;;;5074613;28;20383;-36
2021/11/08 10:28:41;;;;;;;21.63;10.75;;;12.80;65.90;;;;;;5045904;28;20413;-39
2021/11/08 10:31:15;;;;;;;18.30;10.63;;;12.90;66.20;;;;;;5034618;28;20429;-38
2021/11/08 10:33:42;;;;;;;19.20;10.70;;;13.00;65.60;;;;;;5034976;28;20029;-38
2021/11/08 10:36:15;;;;;;;19.27;10.70;;;13.00;65.30;;;;;;5034950;28;20068;-34
2021/11/08 10:38:45;;;;;;;30.33;10.65;;;13.10;64.90;;;;;;5035077;28;20346;-39
2021/11/08 10:41:21;;;;;;;15.77;10.90;;;13.20;64.90;;;;;;5034614;28;20029;-36
2021/11/08 10:43:51;;;;;;;16.77;10.30;;;13.20;64.30;;;;;;5036535;28;20065;-35
2021/11/08 10:46:22;;;;;;;19.25;10.50;;;13.30;64.10;;;;;;5038418;28;20072;-39
2021/11/08 10:48:51;;;;;;;29.83;10.93;;;13.30;63.60;;;;;;5038485;28;20144;-39
2021/11/08 10:51:22;;;;;;;16.02;10.07;;;13.30;64.10;;;;;;5038232;28;20032;-40
2021/11/08 10:53:56;;;;;;;20.48;10.15;;;13.30;63.80;;;;;;5038609;28;20025;-37
2021/11/08 10:56:24;;;;;;;19.90;11.05;;;13.30;63.90;;;;;;5037674;28;20048;-36
2021/11/08 10:58:51;;;;;;;18.20;10.65;;;13.30;64.00;;;;;;5038161;28;20072;-36
2021/11/08 11:01:25;;;;;;;41.05;12.93;;;13.20;64.10;;;;;;5038187;28;20049;-38
2021/11/08 11:03:53;;;;;;;17.83;10.48;;;13.20;64.30;;;;;;5038573;28;20026;-35
2021/11/08 11:06:21;;;;;;;14.88;9.75;;;13.20;64.20;;;;;;5037859;28;20867;-36
2021/11/08 11:08:51;;;;;;;16.75;10.20;;;13.20;64.00;;;;;;5038206;28;20641;-37
2021/11/08 11:11:24;;;;;;;20.63;10.63;;;13.20;63.70;;;;;;5037758;28;20033;-37
2021/11/08 11:13:52;;;;;;;17.88;10.02;;;13.20;63.80;;;;;;5037875;28;20037;-35
2021/11/08 11:16:49;;;;;;;14.02;8.30;;;13.20;64.10;;;;;;5039095;28;20040;-37
2021/11/08 11:19:18;;;;;;;15.65;8.82;;;13.20;63.90;;;;;;5037962;28;20426;-36
2021/11/08 11:22:00;;;;;;;14.20;9.30;;;13.20;63.60;;;;;;5037743;28;20037;-36
2021/11/08 11:24:49;;;;;;;15.50;8.60;;;13.20;63.40;;;;;;5036781;28;20104;-35
2021/11/08 11:27:26;;;;;;;21.58;8.85;;;13.20;63.40;;;;;;5037356;28;20091;-37
2021/11/08 11:29:53;;;;;;;15.15;8.40;;;13.20;63.50;;;;;;5037928;28;20617;-35
2021/11/08 11:32:24;;;;;;;13.27;9.45;;;13.20;63.50;;;;;;5037321;28;20374;-35
2021/11/08 11:34:50;;;;;;;15.27;8.35;;;13.20;63.20;;;;;;5037248;28;20033;-35
2021/11/08 11:37:18;;;;;;;15.13;8.50;;;13.10;63.00;;;;;;5036668;28;20414;-35
2021/11/08 11:39:44;;;;;;;26.30;9.73;;;13.10;63.30;;;;;;5037305;28;20061;-36
2021/11/08 11:42:10;;;;;;;32.25;8.85;;;13.10;63.70;;;;;;5036895;28;20334;-36
2021/11/08 11:44:37;;;;;;;11.00;7.97;;;13.00;63.10;;;;;;5037292;28;20025;-40
2021/11/08 11:47:14;;;;;;;12.25;7.70;;;13.00;62.90;;;;;;5037156;28;20094;-39
2021/11/08 11:49:44;;;;;;;12.30;6.85;;;13.00;63.50;;;;;;5037112;28;20055;-35
2021/11/08 11:52:10;;;;;;;19.10;7.55;;;12.90;62.80;;;;;;5036476;28;20029;-36
2021/11/08 11:54:38;;;;;;;11.73;7.60;;;12.90;62.90;;;;;;5035034;28;20049;-36
2021/11/08 11:57:05;;;;;;;18.95;8.48;;;12.90;62.90;;;;;;5036421;28;20107;-36
2021/11/08 11:59:31;;;;;;;19.30;8.65;;;12.90;62.90;;;;;;5036792;28;20116;-35
2021/11/08 12:01:57;;;;;;;15.70;8.40;;;12.90;63.30;;;;;;5037002;28;20042;-39
2021/11/08 12:04:28;;;;;;;12.48;8.00;;;12.80;63.40;;;;;;5036873;28;20371;-38
2021/11/08 12:06:58;;;;;;;40.90;12.55;;;12.80;63.30;;;;;;5036959;28;20041;-39
2021/11/08 12:09:24;;;;;;;13.63;8.05;;;12.80;63.50;;;;;;5036973;28;20326;-35
2021/11/08 12:11:54;;;;;;;15.98;8.13;;;12.70;63.40;;;;;;5036386;28;20465;-37
2021/11/08 12:14:28;;;;;;;15.38;8.57;;;12.80;63.60;;;;;;5036952;28;20029;-38
2021/11/08 12:17:17;;;;;;;12.93;6.90;;;12.70;63.20;;;;;;5039507;28;20027;-36
2021/11/08 12:19:45;;;;;;;12.20;6.78;;;12.60;62.90;;;;;;5036715;28;20037;-35
2021/11/08 12:22:15;;;;;;;11.38;7.30;;;12.50;62.90;;;;;;5036156;28;20040;-37
2021/11/08 12:24:42;;;;;;;24.20;8.40;;;12.40;63.10;;;;;;5035151;28;20025;-36
2021/11/08 12:27:11;;;;;;;18.67;7.57;;;12.40;63.60;;;;;;5036519;28;20353;-36
2021/11/08 12:29:52;;;;;;;15.50;6.60;;;12.40;63.70;;;;;;5036599;28;20068;-35
2021/11/08 12:32:18;;;;;;;16.15;7.40;;;12.30;63.50;;;;;;5036132;28;20029;-38
2021/11/08 12:34:47;;;;;;;12.73;7.38;;;12.30;63.80;;;;;;5036668;28;20091;-38
2021/11/08 12:37:14;;;;;;;14.77;7.28;;;12.30;63.70;;;;;;5036255;28;20034;-35
2021/11/08 12:39:41;;;;;;;10.55;6.68;;;12.20;63.70;;;;;;5036491;28;20025;-39
2021/11/08 12:42:11;;;;;;;15.50;7.97;;;12.20;64.10;;;;;;5036186;28;20033;-40
2021/11/08 12:44:41;;;;;;;15.47;7.93;;;12.20;64.20;;;;;;5036093;28;20445;-39
2021/11/08 12:47:09;;;;;;;33.92;14.15;;;12.20;64.30;;;;;;5036015;28;20265;-36
2021/11/08 12:49:51;;;;;;;26.42;11.05;;;12.10;64.70;;;;;;5035878;28;20083;-36
2021/11/08 12:52:27;;;;;;;14.70;9.82;;;12.10;64.60;;;;;;5035884;28;20026;-36
2021/11/08 12:55:15;;;;;;;22.02;9.15;;;12.10;64.70;;;;;;5035725;28;20057;-39
2021/11/08 12:58:11;;;;;;;20.48;9.57;;;12.10;65.00;;;;;;5040632;28;20037;-39
2021/11/08 13:00:42;;;;;;;21.98;9.88;;;12.10;64.70;;;;;;5039186;28;20345;-39
2021/11/08 13:03:17;;;;;;;18.67;9.40;;;12.10;65.00;;;;;;5035946;28;20075;-39
2021/11/08 13:05:47;;;;;;;14.95;8.43;;;12.10;65.20;;;;;;5035466;28;20029;-35
2021/11/08 13:08:26;;;;;;;18.17;9.55;;;12.10;65.20;;;;;;5035487;28;20028;-39
2021/11/08 13:10:59;;;;;;;18.17;10.25;;;12.10;65.30;;;;;;5035448;28;20029;-38
2021/11/08 13:13:26;;;;;;;26.40;11.75;;;12.10;65.40;;;;;;5035648;28;20436;-40
2021/11/08 13:16:01;;;;;;;19.30;10.80;;;12.10;65.60;;;;;;5035699;28;20029;-37
2021/11/08 13:18:42;;;;;;;24.67;10.02;;;12.10;65.40;;;;;;5035802;28;20048;-36
2021/11/08 13:21:11;;;;;;;18.55;11.05;;;12.10;65.30;;;;;;5035292;28;20034;-35
2021/11/08 13:23:40;;;;;;;25.27;12.75;;;12.00;65.30;;;;;;5035493;28;20112;-36
2021/11/08 13:26:08;;;;;;;28.40;15.32;;;12.00;65.70;;;;;;5035306;28;20033;-39
2021/11/08 13:28:36;;;;;;;31.77;14.38;;;12.00;65.10;;;;;;5035383;28;20406;-36
2021/11/08 13:31:15;;;;;;;25.10;13.38;;;12.00;65.30;;;;;;5035235;28;20034;-36
2021/11/08 13:33:45;;;;;;;42.60;16.15;;;12.00;65.20;;;;;;5034442;28;20036;-37
2021/11/08 13:36:13;;;;;;;24.90;13.23;;;11.90;65.50;;;;;;5035254;28;20057;-40
2021/11/08 13:38:42;;;;;;;24.92;15.43;;;12.00;65.50;;;;;;5035351;28;20033;-39
2021/11/08 13:41:16;;;;;;;35.60;15.48;;;11.90;65.30;;;;;;5035295;28;20030;-37
2021/11/08 13:43:49;;;;;;;66.35;19.45;;;11.90;65.20;;;;;;5035566;28;20357;-39
2021/11/08 13:46:16;;;;;;;24.73;14.27;;;11.90;65.40;;;;;;5034745;28;20116;-39
2021/11/08 13:48:49;;;;;;;24.10;12.70;;;11.90;65.50;;;;;;5035340;28;20120;-36
2021/11/08 13:51:24;;;;;;;19.92;12.00;;;11.90;65.60;;;;;;5036445;28;20063;-38
2021/11/08 13:54:22;;;;;;;18.08;10.13;;;11.90;65.30;;;;;;5044277;28;20036;-36
2021/11/08 13:56:52;;;;;;;22.13;9.90;;;11.90;65.00;;;;;;5034429;28;20522;-39
2021/11/08 13:59:25;;;;;;;13.95;8.57;;;11.90;64.80;;;;;;5035353;28;20026;-36
2021/11/08 14:02:01;;;;;;;28.48;11.68;;;11.90;64.80;;;;;;5035067;28;20091;-37
2021/11/08 14:04:38;;;;;;;17.42;8.25;;;11.80;65.00;;;;;;5035407;28;20042;-39
2021/11/08 14:07:06;;;;;;;16.77;8.57;;;11.80;64.90;;;;;;5035250;28;20037;-38
2021/11/08 14:09:34;;;;;;;14.68;7.13;;;11.80;64.90;;;;;;5035508;28;20037;-37
2021/11/08 14:12:02;;;;;;;11.27;6.32;;;11.70;64.10;;;;;;5034979;28;20418;-37
2021/11/08 14:14:31;;;;;;;18.75;6.57;;;11.70;63.80;;;;;;5035628;28;20021;-37
2021/11/08 14:17:12;;;;;;;10.40;5.57;;;11.60;63.90;;;;;;5034499;28;20087;-37
2021/11/08 14:19:39;;;;;;;10.63;5.30;;;11.60;63.30;;;;;;5039205;28;20044;-36
2021/11/08 14:22:05;;;;;;;17.35;5.63;;;11.50;63.20;;;;;;5036361;28;20030;-38
2021/11/08 14:24:37;;;;;;;7.30;4.47;;;11.50;63.30;;;;;;5057894;28;20106;-37
2021/11/08 14:27:04;;;;;;;10.32;5.05;;;11.50;62.90;;;;;;5058459;28;20079;-38